createdAt,value
2018-01-28T00:01:36.063Z,65.33
2018-01-28T00:04:04.707Z,63.33
2018-01-28T00:06:33.279Z,63.27
2018-01-28T00:09:02.640Z,67.33
2018-01-28T00:11:31.184Z,60.07
2018-01-28T00:13:59.676Z,59.53
2018-01-28T00:16:28.186Z,58.47
2018-01-28T00:18:56.864Z,60.17
2018-01-28T00:21:25.355Z,66.33
2018-01-28T00:23:53.850Z,65.83
2018-01-28T00:26:22.616Z,65.40
2018-01-28T00:28:51.144Z,65.63
2018-01-28T00:31:20.403Z,59.07
2018-01-28T00:33:49.390Z,55.47
2018-01-28T00:36:17.882Z,52.97
2018-01-28T00:38:46.375Z,55.90
2018-01-28T00:41:14.970Z,51.97
2018-01-28T00:43:44.239Z,47.00
2018-01-28T00:46:12.740Z,45.40
2018-01-28T00:48:41.643Z,45.77
2018-01-28T00:51:11.711Z,51.07
2018-01-28T00:53:40.207Z,53.10
2018-01-28T00:56:08.744Z,53.87
2018-01-28T00:58:38.003Z,62.73
2018-01-28T01:01:06.556Z,63.97
2018-01-28T01:03:35.235Z,55.93
2018-01-28T01:06:03.780Z,48.23
2018-01-28T01:08:32.279Z,45.07
2018-01-28T01:11:02.032Z,41.53
2018-01-28T01:13:30.579Z,36.03
2018-01-28T01:15:59.068Z,36.67
2018-01-28T01:18:27.883Z,32.47
2018-01-28T01:20:56.435Z,31.60
2018-01-28T01:23:24.923Z,32.30
2018-01-28T01:25:53.463Z,32.40
2018-01-28T01:28:22.772Z,33.33
2018-01-28T01:30:52.025Z,35.73
2018-01-28T01:33:20.647Z,34.30
2018-01-28T01:35:49.146Z,28.27
2018-01-28T01:38:18.399Z,27.57
2018-01-28T01:40:46.995Z,26.87
2018-01-28T01:43:15.551Z,24.27
2018-01-28T01:45:44.048Z,23.90
2018-01-28T01:48:12.645Z,24.00
2018-01-28T01:50:41.208Z,21.70
2018-01-28T01:53:09.699Z,22.20
2018-01-28T01:55:38.295Z,21.23
2018-01-28T01:58:06.876Z,23.87
2018-01-28T02:00:35.444Z,22.23
2018-01-28T02:03:04.267Z,21.50
2018-01-28T02:05:33.587Z,20.83
2018-01-28T02:08:02.912Z,21.00
2018-01-28T02:10:31.504Z,20.73
2018-01-28T02:13:00.068Z,22.27
2018-01-28T02:15:28.562Z,20.37
2018-01-28T02:17:57.472Z,20.53
2018-01-28T02:20:26.053Z,20.13
2018-01-28T02:22:54.604Z,20.47
2018-01-28T02:25:23.183Z,21.17
2018-01-28T02:27:51.903Z,20.57
2018-01-28T02:30:20.457Z,21.97
2018-01-28T02:32:49.136Z,23.97
2018-01-28T02:35:17.688Z,24.03
2018-01-28T02:37:46.173Z,23.50
2018-01-28T02:40:14.719Z,24.13
2018-01-28T02:42:43.251Z,25.87
2018-01-28T02:45:12.507Z,22.67
2018-01-28T02:47:41.867Z,23.83
2018-01-28T02:50:10.421Z,25.23
2018-01-28T02:52:38.974Z,23.50
2018-01-28T02:55:07.679Z,23.80
2018-01-28T02:57:36.166Z,23.63
2018-01-28T03:00:04.772Z,24.27
2018-01-28T03:02:34.366Z,23.47
2018-01-28T03:05:04.455Z,24.00
2018-01-28T03:07:32.947Z,23.10
2018-01-28T03:10:01.539Z,25.33
2018-01-28T03:12:30.097Z,24.10
2018-01-28T03:14:58.650Z,26.03
2018-01-28T03:17:27.468Z,31.87
2018-01-28T03:19:56.032Z,32.30
2018-01-28T03:22:24.580Z,31.17
2018-01-28T03:24:53.889Z,29.10
2018-01-28T03:27:23.139Z,29.37
2018-01-28T03:29:51.631Z,31.20
2018-01-28T03:32:20.335Z,32.30
2018-01-28T03:34:48.920Z,31.83
2018-01-28T03:37:17.432Z,37.80
2018-01-28T03:39:46.731Z,38.23
2018-01-28T03:42:15.223Z,42.47
2018-01-28T03:44:43.710Z,42.73
2018-01-28T03:47:12.247Z,41.97
2018-01-28T03:49:41.576Z,42.30
2018-01-28T03:52:10.076Z,37.80
2018-01-28T03:54:38.923Z,36.13
2018-01-28T03:57:08.184Z,37.47
2018-01-28T03:59:36.716Z,35.70
2018-01-28T04:02:06.023Z,37.27
2018-01-28T04:04:35.287Z,35.00
2018-01-28T04:07:03.851Z,32.67
2018-01-28T04:09:32.391Z,30.00
2018-01-28T04:12:01.703Z,30.30
2018-01-28T04:14:30.264Z,29.90
2018-01-28T04:16:59.573Z,29.83
2018-01-28T04:19:28.066Z,34.80
2018-01-28T04:21:56.577Z,43.57
2018-01-28T04:24:25.483Z,41.53
2018-01-28T04:26:53.975Z,37.90
2018-01-28T04:29:22.483Z,30.60
2018-01-28T04:31:51.883Z,28.17
2018-01-28T04:34:21.144Z,25.17
2018-01-28T04:36:49.639Z,26.23
2018-01-28T04:39:18.341Z,26.60
2018-01-28T04:41:47.683Z,22.87
2018-01-28T04:44:16.182Z,23.97
2018-01-28T04:46:44.791Z,23.20
2018-01-28T04:49:13.345Z,23.20
2018-01-28T04:51:41.836Z,23.20
2018-01-28T04:54:10.375Z,23.00
2018-01-28T04:56:38.873Z,25.77
2018-01-28T04:59:07.888Z,24.50
2018-01-28T05:01:37.739Z,23.30
2018-01-28T05:04:07.007Z,23.83
2018-01-28T05:06:35.511Z,23.13
2018-01-28T05:09:04.107Z,21.60
2018-01-28T05:11:33.387Z,23.60
2018-01-28T05:14:01.957Z,22.50
2018-01-28T05:16:30.651Z,23.70
2018-01-28T05:18:59.171Z,23.90
2018-01-28T05:21:28.499Z,23.50
2018-01-28T05:23:57.511Z,24.23
2018-01-28T05:26:26.020Z,23.63
2018-01-28T05:28:54.577Z,23.90
2018-01-28T05:31:23.571Z,24.87
2018-01-28T05:33:52.063Z,25.83
2018-01-28T05:36:20.639Z,26.73
2018-01-28T05:38:49.186Z,26.03
2018-01-28T05:41:17.677Z,26.27
2018-01-28T05:43:46.239Z,28.60
2018-01-28T05:46:15.543Z,29.23
2018-01-28T05:48:44.099Z,32.03
2018-01-28T05:51:12.605Z,31.73
2018-01-28T05:53:41.155Z,34.03
2018-01-28T05:56:09.656Z,32.00
2018-01-28T05:58:38.922Z,31.13
2018-01-28T06:01:07.628Z,30.03
2018-01-28T06:03:36.127Z,26.47
2018-01-28T06:06:05.440Z,27.70
2018-01-28T06:08:33.991Z,23.27
2018-01-28T06:11:02.553Z,22.70
2018-01-28T06:13:31.047Z,24.77
2018-01-28T06:15:59.807Z,28.07
2018-01-28T06:18:28.379Z,27.50
2018-01-28T06:20:56.943Z,26.50
2018-01-28T06:23:25.570Z,27.30
2018-01-28T06:25:54.119Z,27.30
2018-01-28T06:28:22.608Z,46.27
2018-01-28T06:30:51.214Z,101.27
2018-01-28T06:33:19.780Z,128.33
2018-01-28T06:35:48.310Z,209.57
2018-01-28T06:38:17.107Z,241.37
2018-01-28T06:40:46.443Z,231.73
2018-01-28T06:43:14.947Z,223.87
2018-01-28T06:45:43.634Z,209.27
2018-01-28T06:48:12.219Z,171.80
2018-01-28T06:50:40.719Z,146.20
2018-01-28T06:53:09.524Z,135.97
2018-01-28T06:55:38.783Z,117.43
2018-01-28T06:58:07.276Z,134.30
2018-01-28T07:00:36.594Z,49.13
2018-01-28T07:03:05.083Z,26.63
2018-01-28T07:05:33.586Z,23.73
2018-01-28T07:08:02.584Z,24.17
2018-01-28T07:10:31.136Z,23.57
2018-01-28T07:13:00.395Z,24.50
2018-01-28T07:15:29.107Z,22.23
2018-01-28T07:17:58.416Z,23.37
2018-01-28T07:20:26.974Z,25.87
2018-01-28T07:22:55.515Z,28.43
2018-01-28T07:25:24.095Z,26.83
2018-01-28T07:27:54.076Z,25.50
2018-01-28T07:30:23.683Z,26.77
2018-01-28T07:32:53.004Z,28.60
2018-01-28T07:35:21.572Z,25.17
2018-01-28T07:37:50.152Z,23.10
2018-01-28T07:40:18.728Z,24.80
2018-01-28T07:42:47.219Z,27.47
2018-01-28T07:45:15.925Z,31.10
2018-01-28T07:47:44.423Z,34.67
2018-01-28T07:50:12.977Z,48.87
2018-01-28T07:52:43.042Z,34.90
2018-01-28T07:55:11.543Z,36.03
2018-01-28T07:57:40.063Z,51.70
2018-01-28T08:00:08.688Z,30.93
2018-01-28T08:02:37.234Z,31.87
2018-01-28T08:05:06.495Z,31.17
2018-01-28T08:07:35.120Z,56.27
2018-01-28T08:10:19.443Z,43.53
2018-01-28T08:12:48.472Z,26.87
2018-01-28T08:15:16.976Z,24.27
2018-01-28T08:17:45.529Z,33.73
2018-01-28T08:20:14.188Z,31.30
2018-01-28T08:22:42.716Z,32.63
2018-01-28T08:25:11.308Z,28.77
2018-01-28T08:27:41.503Z,31.57
2018-01-28T08:30:10.817Z,29.53
2018-01-28T08:32:39.368Z,34.40
2018-01-28T08:35:08.162Z,31.47
2018-01-28T08:37:36.659Z,31.50
2018-01-28T08:40:05.945Z,30.97
2018-01-28T08:42:34.550Z,34.90
2018-01-28T08:45:03.100Z,34.30
2018-01-28T08:47:31.660Z,34.93
2018-01-28T08:50:00.341Z,33.73
2018-01-28T08:52:28.840Z,34.37
2018-01-28T08:54:58.107Z,42.90
2018-01-28T08:57:26.839Z,34.93
2018-01-28T08:59:56.164Z,34.80
2018-01-28T09:02:25.770Z,38.13
2018-01-28T09:04:54.575Z,33.50
2018-01-28T09:07:23.083Z,31.93
2018-01-28T09:09:51.603Z,31.43
2018-01-28T09:12:20.146Z,29.77
2018-01-28T09:14:48.651Z,30.23
2018-01-28T09:17:17.159Z,33.67
2018-01-28T09:19:46.471Z,33.83
2018-01-28T09:22:14.986Z,37.73
2018-01-28T09:24:43.487Z,33.43
2018-01-28T09:27:12.131Z,32.37
2018-01-28T09:29:41.399Z,37.43
2018-01-28T09:32:09.890Z,32.20
2018-01-28T09:34:39.196Z,34.73
2018-01-28T09:37:07.691Z,35.33
2018-01-28T09:39:36.955Z,32.63
2018-01-28T09:42:05.735Z,33.10
2018-01-28T09:44:34.325Z,32.17
2018-01-28T09:47:02.876Z,34.27
2018-01-28T09:49:31.511Z,33.37
2018-01-28T09:52:00.073Z,36.17
2018-01-28T09:54:28.578Z,35.70
2018-01-28T09:56:57.139Z,35.67
2018-01-28T09:59:25.642Z,37.03
2018-01-28T10:01:54.205Z,37.40
2018-01-28T10:04:22.744Z,37.50
2018-01-28T10:06:51.312Z,37.57
2018-01-28T10:09:19.868Z,43.97
2018-01-28T10:11:48.624Z,49.30
2018-01-28T10:14:17.951Z,44.10
2018-01-28T10:16:46.449Z,39.43
2018-01-28T10:19:14.984Z,37.43
2018-01-28T10:21:43.499Z,38.27
2018-01-28T10:24:12.971Z,38.43
2018-01-28T10:26:41.667Z,38.50
2018-01-28T10:29:10.172Z,68.73
2018-01-28T10:31:39.531Z,48.20
2018-01-28T10:34:08.077Z,39.67
2018-01-28T10:36:36.572Z,46.97
2018-01-28T10:39:05.116Z,43.83
2018-01-28T10:41:34.424Z,40.13
2018-01-28T10:44:03.736Z,44.67
2018-01-28T10:46:33.017Z,63.67
2018-01-28T10:49:02.327Z,39.30
2018-01-28T10:51:31.594Z,41.17
2018-01-28T10:54:00.891Z,40.57
2018-01-28T10:56:29.431Z,40.07
2018-01-28T10:58:57.926Z,40.10
2018-01-28T11:01:26.430Z,45.00
2018-01-28T11:03:55.852Z,46.70
2018-01-28T11:06:25.173Z,40.37
2018-01-28T11:08:53.679Z,40.87
2018-01-28T11:11:22.216Z,43.47
2018-01-28T11:13:50.754Z,40.20
2018-01-28T11:16:19.286Z,40.27
2018-01-28T11:18:47.835Z,41.07
2018-01-28T11:21:16.332Z,41.57
2018-01-28T11:23:44.892Z,44.30
2018-01-28T11:26:14.588Z,40.47
2018-01-28T11:28:43.964Z,42.50
2018-01-28T11:31:12.461Z,44.10
2018-01-28T11:33:41.012Z,44.20
2018-01-28T11:36:09.532Z,43.73
2018-01-28T11:38:38.708Z,44.10
2018-01-28T11:41:07.251Z,42.20
2018-01-28T11:43:35.748Z,42.10
2018-01-28T11:46:04.305Z,41.30
2018-01-28T11:48:32.916Z,42.60
2018-01-28T11:51:02.248Z,42.13
2018-01-28T11:53:30.749Z,40.20
2018-01-28T11:55:59.301Z,39.20
2018-01-28T11:58:27.812Z,39.40
2018-01-28T12:00:56.312Z,40.23
2018-01-28T12:03:25.693Z,40.17
2018-01-28T12:05:54.207Z,41.53
2018-01-28T12:08:23.478Z,42.97
2018-01-28T12:10:52.296Z,43.30
2018-01-28T12:13:20.801Z,45.57
2018-01-28T12:15:49.306Z,43.33
2018-01-28T12:18:18.238Z,40.60
2018-01-28T12:20:47.507Z,40.20
2018-01-28T12:23:16.079Z,37.57
2018-01-28T12:25:44.780Z,39.50
2018-01-28T12:28:13.370Z,35.93
2018-01-28T12:30:41.948Z,34.73
2018-01-28T12:33:10.567Z,31.03
2018-01-28T12:35:39.075Z,34.47
2018-01-28T12:38:07.572Z,29.73
2018-01-28T12:40:36.121Z,32.67
2018-01-28T12:43:04.688Z,30.63
2018-01-28T12:45:33.955Z,31.33
2018-01-28T12:48:02.516Z,32.97
2018-01-28T12:50:31.012Z,30.07
2018-01-28T12:53:00.331Z,30.77
2018-01-28T12:55:30.021Z,28.87
2018-01-28T12:57:58.517Z,33.07
2018-01-28T13:00:27.796Z,30.33
2018-01-28T13:02:57.107Z,29.97
2018-01-28T13:05:26.441Z,29.83
2018-01-28T13:07:54.935Z,29.03
2018-01-28T13:10:23.738Z,29.60
2018-01-28T13:12:52.300Z,31.40
2018-01-28T13:15:20.808Z,33.53
2018-01-28T13:17:49.356Z,31.77
2018-01-28T13:20:17.923Z,32.97
2018-01-28T13:22:46.475Z,32.73
2018-01-28T13:25:15.016Z,34.10
2018-01-28T13:27:43.579Z,35.00
2018-01-28T13:30:12.885Z,34.30
2018-01-28T13:32:41.500Z,33.43
2018-01-28T13:35:10.012Z,31.10
2018-01-28T13:37:38.500Z,32.17
2018-01-28T13:40:07.220Z,35.27
2018-01-28T13:42:36.492Z,39.40
2018-01-28T13:45:05.017Z,33.70
2018-01-28T13:47:33.676Z,33.43
2018-01-28T13:50:02.188Z,32.37
2018-01-28T13:52:30.687Z,29.97
2018-01-28T13:54:59.452Z,32.00
2018-01-28T13:57:28.836Z,32.10
2018-01-28T13:59:57.360Z,31.10
2018-01-28T14:02:25.905Z,33.33
2018-01-28T14:04:55.172Z,34.17
2018-01-28T14:07:23.764Z,33.90
2018-01-28T14:09:52.479Z,33.43
2018-01-28T14:12:20.975Z,35.57
2018-01-28T14:14:49.472Z,33.47
2018-01-28T14:17:18.123Z,32.47
2018-01-28T14:19:46.736Z,34.23
2018-01-28T14:22:15.245Z,37.10
2018-01-28T14:24:43.817Z,33.53
2018-01-28T14:27:12.388Z,33.90
2018-01-28T14:29:40.876Z,33.33
2018-01-28T14:32:09.435Z,34.07
2018-01-28T14:34:37.989Z,34.23
2018-01-28T14:37:06.504Z,33.30
2018-01-28T14:39:36.948Z,38.87
2018-01-28T14:42:05.449Z,36.53
2018-01-28T14:44:34.037Z,40.63
2018-01-28T14:47:02.692Z,40.20
2018-01-28T14:49:31.954Z,37.50
2018-01-28T14:52:00.517Z,34.87
2018-01-28T14:54:29.153Z,44.93
2018-01-28T14:56:57.688Z,40.17
2018-01-28T14:59:26.201Z,39.07
2018-01-28T15:01:55.098Z,37.73
2018-01-28T15:04:25.665Z,43.47
2018-01-28T15:06:54.250Z,39.00
2018-01-28T15:09:24.905Z,42.37
2018-01-28T15:11:54.255Z,48.40
2018-01-28T15:14:29.047Z,135.07
2018-01-28T15:16:57.544Z,55.40
2018-01-28T15:19:36.894Z,49.97
2018-01-28T15:22:05.381Z,63.43
2018-01-28T15:24:34.007Z,55.40
2018-01-28T15:27:02.515Z,55.67
2018-01-28T15:29:31.013Z,60.83
2018-01-28T15:31:59.547Z,62.43
2018-01-28T15:34:28.876Z,69.50
2018-01-28T15:36:57.378Z,56.13
2018-01-28T15:39:25.918Z,52.03
2018-01-28T15:41:55.233Z,63.57
2018-01-28T15:44:23.782Z,73.70
2018-01-28T15:46:53.928Z,106.83
2018-01-28T15:49:22.435Z,120.27
2018-01-28T15:51:51.691Z,123.20
2018-01-28T15:54:20.326Z,119.73
2018-01-28T15:56:48.828Z,115.77
2018-01-28T15:59:17.333Z,112.20
2018-01-28T16:01:45.948Z,116.73
2018-01-28T16:04:14.463Z,127.53
2018-01-28T16:06:43.017Z,123.17
2018-01-28T16:09:11.911Z,175.83
2018-01-28T16:11:40.399Z,167.00
2018-01-28T16:14:09.659Z,165.03
2018-01-28T16:16:38.366Z,183.13
2018-01-28T16:19:06.940Z,231.97
2018-01-28T16:21:35.504Z,199.90
2018-01-28T16:24:04.092Z,210.47
2018-01-28T16:26:32.756Z,231.40
2018-01-28T16:29:01.256Z,218.07
2018-01-28T16:31:29.824Z,230.17
2018-01-28T16:33:58.426Z,246.13
2018-01-28T16:36:26.927Z,259.33
2018-01-28T16:38:55.696Z,271.00
2018-01-28T16:41:24.252Z,287.53
2018-01-28T16:43:52.853Z,347.43
2018-01-28T16:46:21.400Z,349.73
2018-01-28T16:48:50.653Z,374.93
2018-01-28T16:51:19.224Z,416.53
2018-01-28T16:53:47.782Z,416.93
2018-01-28T16:56:16.347Z,392.10
2018-01-28T16:58:44.907Z,399.97
2018-01-28T17:01:13.463Z,376.43
2018-01-28T17:03:42.736Z,385.63
2018-01-28T17:06:11.289Z,413.10
2018-01-28T17:08:39.833Z,498.57
2018-01-28T17:11:09.089Z,475.27
2018-01-28T17:13:38.534Z,457.17
2018-01-28T17:16:07.852Z,441.53
2018-01-28T17:18:36.423Z,401.30
2018-01-28T17:21:05.767Z,380.37
2018-01-28T17:23:34.509Z,365.40
2018-01-28T17:26:03.780Z,371.17
2018-01-28T17:28:33.046Z,433.60
2018-01-28T17:31:01.796Z,464.13
2018-01-28T17:33:31.124Z,414.03
2018-01-28T17:35:59.615Z,347.93
2018-01-28T17:38:28.459Z,299.37
2018-01-28T17:40:57.751Z,222.63
2018-01-28T17:43:26.270Z,186.83
2018-01-28T17:45:54.807Z,193.67
2018-01-28T17:48:23.575Z,181.80
2018-01-28T17:50:52.071Z,176.67
2018-01-28T17:53:20.775Z,157.73
2018-01-28T17:55:50.249Z,166.43
2018-01-28T17:58:18.838Z,182.70
2018-01-28T18:00:47.760Z,175.13
2018-01-28T18:03:17.037Z,181.93
2018-01-28T18:05:45.555Z,171.70
2018-01-28T18:08:14.868Z,164.13
2018-01-28T18:10:43.372Z,188.77
2018-01-28T18:13:11.888Z,181.43
2018-01-28T18:15:40.647Z,177.80
2018-01-28T18:18:09.292Z,178.27
2018-01-28T18:20:38.612Z,165.20
2018-01-28T18:23:07.200Z,153.60
2018-01-28T18:25:35.916Z,151.53
2018-01-28T18:28:04.415Z,145.70
2018-01-28T18:30:33.123Z,150.07
2018-01-28T18:33:02.384Z,134.20
2018-01-28T18:35:31.016Z,120.43
2018-01-28T18:37:59.556Z,105.43
2018-01-28T18:40:28.128Z,102.53
2018-01-28T18:42:56.632Z,101.40
2018-01-28T18:45:25.436Z,102.97
2018-01-28T18:47:55.436Z,105.43
2018-01-28T18:50:23.924Z,120.30
2018-01-28T18:52:52.459Z,120.73
2018-01-28T18:55:20.953Z,125.20
2018-01-28T18:57:49.448Z,171.13
2018-01-28T19:00:18.142Z,228.77
2018-01-28T19:02:46.644Z,160.60
2018-01-28T19:05:15.130Z,147.70
2018-01-28T19:07:44.662Z,154.90
2018-01-28T19:10:13.156Z,171.50
2018-01-28T19:12:41.655Z,164.17
2018-01-28T19:15:10.259Z,160.47
2018-01-28T19:17:38.965Z,161.47
2018-01-28T19:20:07.685Z,150.10
2018-01-28T19:22:36.226Z,123.53
2018-01-28T19:25:04.732Z,115.13
2018-01-28T19:27:33.308Z,128.97
2018-01-28T19:30:01.868Z,110.60
2018-01-28T19:32:30.365Z,130.40
2018-01-28T19:34:58.860Z,126.07
2018-01-28T19:37:27.851Z,125.83
2018-01-28T19:39:56.414Z,120.37
2018-01-28T19:42:24.919Z,127.17
2018-01-28T19:44:53.509Z,119.63
2018-01-28T19:47:22.003Z,142.43
2018-01-28T19:49:50.508Z,139.20
2018-01-28T19:52:20.159Z,140.40
2018-01-28T19:54:48.660Z,120.03
2018-01-28T19:57:17.153Z,119.33
2018-01-28T19:59:46.123Z,137.07
2018-01-28T20:02:14.761Z,128.93
2018-01-28T20:04:43.264Z,110.07
2018-01-28T20:07:12.055Z,109.13
2018-01-28T20:09:40.563Z,111.53
2018-01-28T20:12:09.145Z,116.10
2018-01-28T20:14:38.451Z,112.03
2018-01-28T20:17:07.049Z,106.37
2018-01-28T20:19:35.783Z,119.07
2018-01-28T20:22:05.086Z,127.17
2018-01-28T20:24:33.591Z,132.00
2018-01-28T20:27:02.866Z,115.23
2018-01-28T20:29:32.268Z,108.77
2018-01-28T20:32:02.282Z,113.93
2018-01-28T20:34:30.790Z,133.73
2018-01-28T20:37:00.118Z,158.07
2018-01-28T20:39:28.634Z,147.67
2018-01-28T20:41:57.144Z,162.77
2018-01-28T20:44:26.464Z,143.03
2018-01-28T20:46:54.976Z,169.80
2018-01-28T20:49:23.475Z,146.83
2018-01-28T20:51:52.029Z,145.07
2018-01-28T20:54:20.529Z,156.20
2018-01-28T20:56:49.112Z,191.60
2018-01-28T20:59:17.655Z,165.13
2018-01-28T21:01:46.913Z,145.90
2018-01-28T21:04:15.407Z,133.77
2018-01-28T21:06:43.959Z,199.30
2018-01-28T21:09:12.459Z,226.40
2018-01-28T21:11:40.964Z,227.33
2018-01-28T21:14:10.293Z,248.63
2018-01-28T21:16:38.794Z,232.80
2018-01-28T21:19:07.303Z,222.67
2018-01-28T21:21:35.885Z,245.67
2018-01-28T21:24:04.432Z,233.40
2018-01-28T21:26:32.950Z,238.73
2018-01-28T21:29:01.511Z,176.83
2018-01-28T21:31:30.021Z,105.00
2018-01-28T21:33:58.525Z,97.10
2018-01-28T21:36:27.836Z,90.00
2018-01-28T21:38:57.099Z,86.80
2018-01-28T21:41:25.668Z,99.47
2018-01-28T21:43:54.393Z,89.63
2018-01-28T21:46:23.704Z,81.03
2018-01-28T21:48:52.970Z,80.50
2018-01-28T21:51:21.948Z,90.40
2018-01-28T21:53:50.441Z,82.33
2018-01-28T21:56:18.944Z,98.27
2018-01-28T21:58:48.449Z,107.73
2018-01-28T22:01:17.792Z,105.80
2018-01-28T22:03:46.328Z,89.57
2018-01-28T22:06:14.879Z,78.83
2018-01-28T22:08:43.378Z,78.80
2018-01-28T22:11:11.945Z,78.97
2018-01-28T22:13:40.591Z,87.53
2018-01-28T22:16:09.155Z,76.17
2018-01-28T22:18:38.425Z,75.50
2018-01-28T22:21:06.971Z,71.30
2018-01-28T22:23:35.476Z,72.60
2018-01-28T22:26:03.996Z,67.17
2018-01-28T22:28:34.419Z,69.87
2018-01-28T22:31:03.692Z,59.50
2018-01-28T22:33:32.259Z,63.23
2018-01-28T22:36:01.018Z,60.30
2018-01-28T22:38:29.502Z,65.73
2018-01-28T22:40:58.009Z,65.23
2018-01-28T22:43:26.552Z,66.40
2018-01-28T22:45:55.823Z,63.17
2018-01-28T22:48:24.382Z,65.70
2018-01-28T22:50:53.103Z,64.23
2018-01-28T22:53:21.604Z,62.83
2018-01-28T22:55:51.179Z,71.13
2018-01-28T22:58:19.880Z,72.53
2018-01-28T23:00:49.210Z,103.90
2018-01-28T23:03:17.709Z,84.70
2018-01-28T23:05:46.252Z,86.37
2018-01-28T23:08:15.511Z,86.20
2018-01-28T23:10:44.060Z,80.67
2018-01-28T23:13:12.665Z,86.17
2018-01-28T23:15:41.165Z,101.07
2018-01-28T23:18:09.716Z,89.87
2018-01-28T23:20:38.260Z,92.60
2018-01-28T23:23:07.584Z,109.90
2018-01-28T23:25:36.083Z,95.27
2018-01-28T23:28:04.923Z,92.77
2018-01-28T23:30:33.421Z,90.53
2018-01-28T23:33:03.623Z,119.37
2018-01-28T23:35:32.276Z,111.53
2018-01-28T23:38:00.780Z,117.73
2018-01-28T23:40:29.276Z,108.37
2018-01-28T23:42:57.878Z,111.47
2018-01-28T23:45:27.208Z,104.07
2018-01-28T23:47:55.764Z,97.50
2018-01-28T23:50:25.247Z,98.17
2018-01-28T23:52:53.754Z,102.30
2018-01-28T23:55:22.252Z,95.57
2018-01-28T23:57:51.175Z,95.30
